createdAt,value
2017-08-28T00:01:23.963Z,10.97
2017-08-28T00:03:53.226Z,11.07
2017-08-28T00:06:22.585Z,10.80
2017-08-28T00:08:52.922Z,11.03
2017-08-28T00:11:22.170Z,9.77
2017-08-28T00:13:51.451Z,11.20
2017-08-28T00:16:20.693Z,10.70
2017-08-28T00:18:50.123Z,10.80
2017-08-28T00:21:19.465Z,10.47
2017-08-28T00:23:48.727Z,10.67
2017-08-28T00:26:18.029Z,10.27
2017-08-28T00:28:47.298Z,10.23
2017-08-28T00:31:16.628Z,10.80
2017-08-28T00:33:45.926Z,11.07
2017-08-28T00:36:15.236Z,10.20
2017-08-28T00:38:44.489Z,9.37
2017-08-28T00:41:13.737Z,9.93
2017-08-28T00:43:43.790Z,9.87
2017-08-28T00:46:13.042Z,10.03
2017-08-28T00:48:42.302Z,9.67
2017-08-28T00:51:12.036Z,10.80
2017-08-28T00:53:41.305Z,10.40
2017-08-28T00:56:10.572Z,8.97
2017-08-28T00:58:39.976Z,9.60
2017-08-28T01:01:09.248Z,10.07
2017-08-28T01:03:38.742Z,9.80
2017-08-28T01:06:07.987Z,9.93
2017-08-28T01:08:37.269Z,9.87
2017-08-28T01:11:06.544Z,9.90
2017-08-28T01:13:35.787Z,10.70
2017-08-28T01:16:05.100Z,10.73
2017-08-28T01:18:34.583Z,8.57
2017-08-28T01:21:03.888Z,8.50
2017-08-28T01:23:33.274Z,9.30
2017-08-28T01:26:02.542Z,8.60
2017-08-28T01:28:31.785Z,9.33
2017-08-28T01:31:01.061Z,8.80
2017-08-28T01:33:30.398Z,10.30
2017-08-28T01:35:59.650Z,9.10
2017-08-28T01:38:28.934Z,9.70
2017-08-28T01:40:58.308Z,9.50
2017-08-28T01:43:27.609Z,9.60
2017-08-28T01:45:56.898Z,9.93
2017-08-28T01:48:26.153Z,9.07
2017-08-28T01:50:55.709Z,8.93
2017-08-28T01:53:25.022Z,9.13
2017-08-28T01:55:54.358Z,8.33
2017-08-28T01:58:23.597Z,8.60
2017-08-28T02:00:52.873Z,9.00
2017-08-28T02:03:22.200Z,8.90
2017-08-28T02:05:51.780Z,8.47
2017-08-28T02:08:21.950Z,8.40
2017-08-28T02:10:51.202Z,9.30
2017-08-28T02:13:20.527Z,7.80
2017-08-28T02:15:49.773Z,9.30
2017-08-28T02:18:19.054Z,8.40
2017-08-28T02:20:48.305Z,9.50
2017-08-28T02:23:17.653Z,8.40
2017-08-28T02:25:46.957Z,8.47
2017-08-28T02:28:16.214Z,8.93
2017-08-28T02:30:45.486Z,8.93
2017-08-28T02:33:14.874Z,9.17
2017-08-28T02:35:44.149Z,10.00
2017-08-28T02:38:13.484Z,9.07
2017-08-28T02:40:42.753Z,7.97
2017-08-28T02:43:12.022Z,8.87
2017-08-28T02:45:41.279Z,9.00
2017-08-28T02:48:10.538Z,8.83
2017-08-28T02:50:39.987Z,8.37
2017-08-28T02:53:09.264Z,8.87
2017-08-28T02:55:38.529Z,8.60
2017-08-28T02:58:07.796Z,9.50
2017-08-28T03:00:37.186Z,9.33
2017-08-28T03:03:06.496Z,8.53
2017-08-28T03:05:35.757Z,9.50
2017-08-28T03:08:05.287Z,8.30
2017-08-28T03:10:34.538Z,8.73
2017-08-28T03:13:03.808Z,8.47
2017-08-28T03:15:33.192Z,8.50
2017-08-28T03:18:02.442Z,8.80
2017-08-28T03:20:31.734Z,8.63
2017-08-28T03:23:01.210Z,8.17
2017-08-28T03:25:31.238Z,8.93
2017-08-28T03:28:00.498Z,7.87
2017-08-28T03:30:29.858Z,8.33
2017-08-28T03:32:59.295Z,9.60
2017-08-28T03:35:28.625Z,8.80
2017-08-28T03:37:57.933Z,8.53
2017-08-28T03:40:27.181Z,8.00
2017-08-28T03:42:56.554Z,8.50
2017-08-28T03:45:25.805Z,8.40
2017-08-28T03:47:55.066Z,7.50
2017-08-28T03:50:24.305Z,8.80
2017-08-28T03:52:53.591Z,7.90
2017-08-28T03:55:22.837Z,7.37
2017-08-28T03:57:52.090Z,8.17
2017-08-28T04:00:21.361Z,8.97
2017-08-28T04:02:50.767Z,8.47
2017-08-28T04:05:20.059Z,7.90
2017-08-28T04:07:49.318Z,7.37
2017-08-28T04:10:18.586Z,8.10
2017-08-28T04:12:47.846Z,8.00
2017-08-28T04:15:17.113Z,7.17
2017-08-28T04:17:46.493Z,8.30
2017-08-28T04:20:15.778Z,7.93
2017-08-28T04:22:45.028Z,8.00
2017-08-28T04:25:14.267Z,7.20
2017-08-28T04:27:43.643Z,8.33
2017-08-28T04:30:13.051Z,7.67
2017-08-28T04:32:42.289Z,7.90
2017-08-28T04:35:11.570Z,8.20
2017-08-28T04:37:40.831Z,7.37
2017-08-28T04:40:10.192Z,7.63
2017-08-28T04:42:39.641Z,8.07
2017-08-28T04:45:08.959Z,7.50
2017-08-28T04:47:38.217Z,7.47
2017-08-28T04:50:07.456Z,7.57
2017-08-28T04:52:36.733Z,7.63
2017-08-28T04:55:06.100Z,6.93
2017-08-28T04:57:35.439Z,8.07
2017-08-28T05:00:04.657Z,7.00
2017-08-28T05:02:34.816Z,8.00
2017-08-28T05:05:04.051Z,7.20
2017-08-28T05:07:33.334Z,6.67
2017-08-28T05:10:02.625Z,7.50
2017-08-28T05:12:31.877Z,7.87
2017-08-28T05:15:01.301Z,7.57
2017-08-28T05:17:30.578Z,8.10
2017-08-28T05:19:59.874Z,7.20
2017-08-28T05:22:29.116Z,7.63
2017-08-28T05:24:58.381Z,7.50
2017-08-28T05:27:27.821Z,7.00
2017-08-28T05:29:57.083Z,8.53
2017-08-28T05:32:26.346Z,7.37
2017-08-28T05:34:55.632Z,7.13
2017-08-28T05:37:24.890Z,8.27
2017-08-28T05:39:54.330Z,7.80
2017-08-28T05:42:23.601Z,7.90
2017-08-28T05:44:52.866Z,8.37
2017-08-28T05:47:22.190Z,7.50
2017-08-28T05:49:51.451Z,7.27
2017-08-28T05:52:20.710Z,8.30
2017-08-28T05:54:49.985Z,6.70
2017-08-28T05:57:19.241Z,7.10
2017-08-28T05:59:49.351Z,7.13
2017-08-28T06:02:18.602Z,7.80
2017-08-28T06:04:49.362Z,7.00
2017-08-28T06:07:18.634Z,6.60
2017-08-28T06:09:48.529Z,6.90
2017-08-28T06:12:17.757Z,6.00
2017-08-28T06:14:47.006Z,6.40
2017-08-28T06:17:17.008Z,5.10
2017-08-28T06:19:46.286Z,5.60
2017-08-28T06:22:15.537Z,6.37
2017-08-28T06:24:44.801Z,6.33
2017-08-28T06:27:14.035Z,4.97
2017-08-28T06:29:43.302Z,5.00
2017-08-28T06:32:12.561Z,6.90
2017-08-28T06:34:41.855Z,6.60
2017-08-28T06:37:11.843Z,6.40
2017-08-28T06:39:41.131Z,4.90
2017-08-28T06:42:10.494Z,5.37
2017-08-28T06:44:39.881Z,5.10
2017-08-28T06:47:09.271Z,3.83
2017-08-28T06:49:38.521Z,5.37
2017-08-28T06:52:08.645Z,3.90
2017-08-28T06:54:37.914Z,3.80
2017-08-28T06:57:07.255Z,3.60
2017-08-28T06:59:36.595Z,3.80
2017-08-28T07:02:06.020Z,3.80
2017-08-28T07:04:35.333Z,3.20
2017-08-28T07:07:04.582Z,3.00
2017-08-28T07:09:33.837Z,2.80
2017-08-28T07:12:03.093Z,2.83
2017-08-28T07:14:32.373Z,2.67
2017-08-28T07:17:01.814Z,2.60
2017-08-28T07:19:31.083Z,2.87
2017-08-28T07:22:00.366Z,2.87
2017-08-28T07:24:29.624Z,2.93
2017-08-28T07:26:59.208Z,2.77
2017-08-28T07:29:28.466Z,3.30
2017-08-28T07:31:57.893Z,2.97
2017-08-28T07:34:27.191Z,3.20
2017-08-28T07:36:57.433Z,2.60
2017-08-28T07:39:26.778Z,2.73
2017-08-28T07:41:56.043Z,2.30
2017-08-28T07:44:25.419Z,2.90
2017-08-28T07:46:54.666Z,2.73
2017-08-28T07:49:23.950Z,2.70
2017-08-28T07:51:53.275Z,3.10
2017-08-28T07:54:22.528Z,2.30
2017-08-28T07:56:51.798Z,2.67
2017-08-28T07:59:21.223Z,2.57
2017-08-28T08:01:50.680Z,2.00
2017-08-28T08:04:19.946Z,2.83
2017-08-28T08:06:49.226Z,2.33
2017-08-28T08:09:18.474Z,2.97
2017-08-28T08:11:47.786Z,2.63
2017-08-28T08:14:18.477Z,2.57
2017-08-28T08:16:47.727Z,3.80
2017-08-28T08:19:16.974Z,2.80
2017-08-28T08:21:46.236Z,2.87
2017-08-28T08:24:15.506Z,3.40
2017-08-28T08:26:44.774Z,3.37
2017-08-28T08:29:14.038Z,2.30
2017-08-28T08:31:43.304Z,3.33
2017-08-28T08:34:17.929Z,2.70
2017-08-28T08:36:47.205Z,2.90
2017-08-28T08:39:16.743Z,2.50
2017-08-28T08:41:46.251Z,2.60
2017-08-28T08:44:15.553Z,3.10
2017-08-28T08:46:44.844Z,3.20
2017-08-28T08:49:14.150Z,3.20
2017-08-28T08:51:43.509Z,2.40
2017-08-28T08:54:12.778Z,2.50
2017-08-28T08:56:42.044Z,2.90
2017-08-28T08:59:11.295Z,3.10
2017-08-28T09:01:40.678Z,2.80
2017-08-28T09:04:09.954Z,3.13
2017-08-28T09:06:39.230Z,2.80
2017-08-28T09:09:08.488Z,2.60
2017-08-28T09:11:37.791Z,2.80
2017-08-28T09:14:07.067Z,2.70
2017-08-28T09:16:36.342Z,2.67
2017-08-28T09:19:05.855Z,2.67
2017-08-28T09:21:35.090Z,2.90
2017-08-28T09:24:04.571Z,2.77
2017-08-28T09:26:33.982Z,2.50
2017-08-28T09:29:03.273Z,3.30
2017-08-28T09:31:32.685Z,2.83
2017-08-28T09:34:01.940Z,2.90
2017-08-28T09:36:31.298Z,4.07
2017-08-28T09:39:00.761Z,3.00
2017-08-28T09:41:30.550Z,3.13
2017-08-28T09:43:59.884Z,2.50
2017-08-28T09:46:29.133Z,2.87
2017-08-28T09:48:58.370Z,3.23
2017-08-28T09:51:27.634Z,3.03
2017-08-28T09:53:56.870Z,2.80
2017-08-28T09:56:26.218Z,3.70
2017-08-28T09:58:55.479Z,3.07
2017-08-28T10:01:24.753Z,2.90
2017-08-28T10:03:54.038Z,2.97
2017-08-28T10:06:23.396Z,3.90
2017-08-28T10:08:52.621Z,2.93
2017-08-28T10:11:21.862Z,3.27
2017-08-28T10:13:51.128Z,3.50
2017-08-28T10:16:20.377Z,3.40
2017-08-28T10:18:49.651Z,2.90
2017-08-28T10:21:18.932Z,3.27
2017-08-28T10:23:48.194Z,2.80
2017-08-28T10:26:17.741Z,3.17
2017-08-28T10:28:46.989Z,3.83
2017-08-28T10:31:16.225Z,3.93
2017-08-28T10:33:45.658Z,3.53
2017-08-28T10:36:14.884Z,4.30
2017-08-28T10:38:44.150Z,3.40
2017-08-28T10:41:13.456Z,4.20
2017-08-28T10:43:42.777Z,3.40
2017-08-28T10:46:12.180Z,3.90
2017-08-28T10:48:41.425Z,3.53
2017-08-28T10:51:10.793Z,3.40
2017-08-28T10:53:40.264Z,3.90
2017-08-28T10:56:10.306Z,3.80
2017-08-28T10:58:39.565Z,4.17
2017-08-28T11:01:08.816Z,4.53
2017-08-28T11:03:38.119Z,4.20
2017-08-28T11:06:07.349Z,3.63
2017-08-28T11:08:36.646Z,3.53
2017-08-28T11:11:05.928Z,4.23
2017-08-28T11:13:35.298Z,3.70
2017-08-28T11:16:04.571Z,4.10
2017-08-28T11:18:33.908Z,3.70
2017-08-28T11:21:03.224Z,3.50
2017-08-28T11:23:32.497Z,3.67
2017-08-28T11:26:01.750Z,4.20
2017-08-28T11:28:31.121Z,4.17
2017-08-28T11:31:00.426Z,4.40
2017-08-28T11:33:29.692Z,4.27
2017-08-28T11:35:58.962Z,4.67
2017-08-28T11:38:28.210Z,4.63
2017-08-28T11:40:57.486Z,4.60
2017-08-28T11:43:26.724Z,5.93
2017-08-28T11:45:56.031Z,6.53
2017-08-28T11:48:25.281Z,6.57
2017-08-28T11:50:54.521Z,5.87
2017-08-28T11:53:23.778Z,6.67
2017-08-28T11:55:53.027Z,6.30
2017-08-28T11:58:22.342Z,5.67
2017-08-28T12:00:51.593Z,6.20
2017-08-28T12:03:20.927Z,6.00
2017-08-28T12:05:50.386Z,6.50
2017-08-28T12:08:19.647Z,6.37
2017-08-28T12:10:48.947Z,7.37
2017-08-28T12:13:18.332Z,6.13
2017-08-28T12:15:47.593Z,7.00
2017-08-28T12:18:16.841Z,6.20
2017-08-28T12:20:46.112Z,7.57
2017-08-28T12:23:15.434Z,6.47
2017-08-28T12:25:44.695Z,6.53
2017-08-28T12:28:14.135Z,6.40
2017-08-28T12:30:43.584Z,6.63
2017-08-28T12:33:12.846Z,6.40
2017-08-28T12:35:42.101Z,6.80
2017-08-28T12:38:11.408Z,6.20
2017-08-28T12:40:40.665Z,6.37
2017-08-28T12:43:09.917Z,6.90
2017-08-28T12:45:39.448Z,6.63
2017-08-28T12:48:08.701Z,6.63
2017-08-28T12:50:38.059Z,6.53
2017-08-28T12:53:07.337Z,6.50
2017-08-28T12:55:36.607Z,7.10
2017-08-28T12:58:05.906Z,6.50
2017-08-28T13:00:36.082Z,8.47
2017-08-28T13:03:05.367Z,6.80
2017-08-28T13:05:34.611Z,7.57
2017-08-28T13:08:03.870Z,7.53
2017-08-28T13:10:33.234Z,7.00
2017-08-28T13:13:02.674Z,6.90
2017-08-28T13:15:31.973Z,6.90
2017-08-28T13:18:01.465Z,6.23
2017-08-28T13:20:30.761Z,6.10
2017-08-28T13:23:00.139Z,6.77
2017-08-28T13:25:29.372Z,7.00
2017-08-28T13:27:58.749Z,6.30
2017-08-28T13:30:28.006Z,5.77
2017-08-28T13:32:57.294Z,6.30
2017-08-28T13:35:26.544Z,6.70
2017-08-28T13:37:55.801Z,6.23
2017-08-28T13:40:25.080Z,7.03
2017-08-28T13:42:54.718Z,7.00
2017-08-28T13:45:23.986Z,6.57
2017-08-28T13:47:53.318Z,6.60
2017-08-28T13:50:22.717Z,6.43
2017-08-28T13:52:52.034Z,6.90
2017-08-28T13:55:21.371Z,6.77
2017-08-28T13:57:51.339Z,5.37
2017-08-28T14:00:21.364Z,5.47
2017-08-28T14:02:52.310Z,5.83
2017-08-28T14:05:22.240Z,5.60
2017-08-28T14:07:57.388Z,6.60
2017-08-28T14:10:26.848Z,6.10
2017-08-28T14:12:56.111Z,7.30
2017-08-28T14:15:25.525Z,5.90
2017-08-28T14:17:54.774Z,6.17
2017-08-28T14:20:24.068Z,6.70
2017-08-28T14:22:53.318Z,5.80
2017-08-28T14:25:23.449Z,5.53
2017-08-28T14:27:52.717Z,5.80
2017-08-28T14:30:21.991Z,5.03
2017-08-28T14:32:51.387Z,5.90
2017-08-28T14:35:20.653Z,5.30
2017-08-28T14:37:49.940Z,5.30
2017-08-28T14:40:19.186Z,5.60
2017-08-28T14:42:48.443Z,6.10
2017-08-28T14:45:17.719Z,6.50
2017-08-28T14:47:47.145Z,5.43
2017-08-28T14:50:16.448Z,4.83
2017-08-28T14:52:45.729Z,4.80
2017-08-28T14:55:15.098Z,6.33
2017-08-28T14:57:44.416Z,5.60
2017-08-28T15:00:13.671Z,5.90
2017-08-28T15:02:42.950Z,5.80
2017-08-28T15:05:12.253Z,5.20
2017-08-28T15:07:41.477Z,5.63
2017-08-28T15:10:10.742Z,5.93
2017-08-28T15:12:40.014Z,5.60
2017-08-28T15:15:09.291Z,5.00
2017-08-28T15:17:38.728Z,4.90
2017-08-28T15:20:08.043Z,5.87
2017-08-28T15:22:37.502Z,5.50
2017-08-28T15:25:06.843Z,5.13
2017-08-28T15:27:36.115Z,5.20
2017-08-28T15:30:05.376Z,6.67
2017-08-28T15:32:34.918Z,4.60
2017-08-28T15:35:04.247Z,5.47
2017-08-28T15:37:33.665Z,6.80
2017-08-28T15:40:03.964Z,5.57
2017-08-28T15:42:33.258Z,5.83
2017-08-28T15:45:02.497Z,6.03
2017-08-28T15:47:31.915Z,7.03
2017-08-28T15:50:01.218Z,7.53
2017-08-28T15:52:30.427Z,6.50
2017-08-28T15:54:59.716Z,6.73
2017-08-28T15:57:29.160Z,8.50
2017-08-28T15:59:58.712Z,6.20
2017-08-28T16:02:28.033Z,5.50
2017-08-28T16:04:57.338Z,5.53
2017-08-28T16:07:26.598Z,6.13
2017-08-28T16:09:55.897Z,5.80
2017-08-28T16:12:26.015Z,5.27
2017-08-28T16:14:55.293Z,5.30
2017-08-28T16:17:24.532Z,5.80
2017-08-28T16:19:53.789Z,5.47
2017-08-28T16:22:23.059Z,6.00
2017-08-28T16:24:52.306Z,6.17
2017-08-28T16:27:21.549Z,5.90
2017-08-28T16:29:50.817Z,5.70
2017-08-28T16:32:20.104Z,5.97
2017-08-28T16:34:51.061Z,6.60
2017-08-28T16:37:20.464Z,6.47
2017-08-28T16:39:49.983Z,5.70
2017-08-28T16:42:20.377Z,6.37
2017-08-28T16:44:51.238Z,6.67
2017-08-28T16:47:20.700Z,6.17
2017-08-28T16:49:49.943Z,5.80
2017-08-28T16:52:20.300Z,6.33
2017-08-28T16:54:49.840Z,7.20
2017-08-28T16:57:19.272Z,6.70
2017-08-28T16:59:48.782Z,6.77
2017-08-28T17:02:19.421Z,7.40
2017-08-28T17:04:49.121Z,7.17
2017-08-28T17:07:18.482Z,7.10
2017-08-28T17:09:47.762Z,6.60
2017-08-28T17:12:17.013Z,6.63
2017-08-28T17:14:46.313Z,7.83
2017-08-28T17:17:15.561Z,8.30
2017-08-28T17:19:45.612Z,7.10
2017-08-28T17:22:14.874Z,7.20
2017-08-28T17:24:44.199Z,7.70
2017-08-28T17:27:13.577Z,7.90
2017-08-28T17:29:42.854Z,7.50
2017-08-28T17:32:12.321Z,7.80
2017-08-28T17:34:41.814Z,8.13
2017-08-28T17:37:11.117Z,6.80
2017-08-28T17:39:45.286Z,8.13
2017-08-28T17:42:16.932Z,6.83
2017-08-28T17:44:46.278Z,8.07
2017-08-28T17:47:15.531Z,7.30
2017-08-28T17:49:44.988Z,8.23
2017-08-28T17:52:14.298Z,8.73
2017-08-28T17:54:44.185Z,8.93
2017-08-28T17:57:13.431Z,8.13
2017-08-28T17:59:42.703Z,7.57
2017-08-28T18:02:12.006Z,7.90
2017-08-28T18:04:41.910Z,8.73
2017-08-28T18:07:11.220Z,8.63
2017-08-28T18:09:40.475Z,8.07
2017-08-28T18:12:09.745Z,7.53
2017-08-28T18:14:39.136Z,9.00
2017-08-28T18:17:08.376Z,7.60
2017-08-28T18:19:37.652Z,8.27
2017-08-28T18:22:06.912Z,7.67
2017-08-28T18:24:36.200Z,8.20
2017-08-28T18:27:05.475Z,8.80
2017-08-28T18:29:35.578Z,8.13
2017-08-28T18:32:05.089Z,8.30
2017-08-28T18:34:34.491Z,7.13
2017-08-28T18:37:03.859Z,8.80
2017-08-28T18:39:33.117Z,8.53
2017-08-28T18:42:02.425Z,7.70
2017-08-28T18:44:31.698Z,8.13
2017-08-28T18:47:01.032Z,9.00
2017-08-28T18:49:30.344Z,7.93
2017-08-28T18:51:59.582Z,7.50
2017-08-28T18:54:29.671Z,7.77
2017-08-28T18:56:59.140Z,8.43
2017-08-28T18:59:28.469Z,9.40
2017-08-28T19:01:59.438Z,9.40
2017-08-28T19:04:28.678Z,8.57
2017-08-28T19:06:58.368Z,8.03
2017-08-28T19:09:27.710Z,8.30
2017-08-28T19:11:56.990Z,8.47
2017-08-28T19:14:26.232Z,8.30
2017-08-28T19:16:55.484Z,8.20
2017-08-28T19:19:24.792Z,8.37
2017-08-28T19:21:54.190Z,9.20
2017-08-28T19:24:23.470Z,9.23
2017-08-28T19:26:53.019Z,8.67
2017-08-28T19:29:22.281Z,9.00
2017-08-28T19:31:51.564Z,9.00
2017-08-28T19:34:23.891Z,8.53
2017-08-28T19:36:56.481Z,8.90
2017-08-28T19:39:25.707Z,7.40
2017-08-28T19:41:54.976Z,8.63
2017-08-28T19:44:24.390Z,8.60
2017-08-28T19:46:53.653Z,7.83
2017-08-28T19:49:23.031Z,9.17
2017-08-28T19:51:52.398Z,8.17
2017-08-28T19:54:21.637Z,8.90
2017-08-28T19:56:50.911Z,9.23
2017-08-28T19:59:20.207Z,8.27
2017-08-28T20:01:50.233Z,7.53
2017-08-28T20:04:19.503Z,8.73
2017-08-28T20:06:48.777Z,8.57
2017-08-28T20:09:18.053Z,9.07
2017-08-28T20:11:48.129Z,8.97
2017-08-28T20:14:17.402Z,8.60
2017-08-28T20:16:46.689Z,8.80
2017-08-28T20:19:15.934Z,8.60
2017-08-28T20:21:45.195Z,7.70
2017-08-28T20:24:14.490Z,8.97
2017-08-28T20:26:43.738Z,8.80
2017-08-28T20:29:13.868Z,7.40
2017-08-28T20:31:43.187Z,9.37
2017-08-28T20:34:12.458Z,7.80
2017-08-28T20:36:41.736Z,8.70
2017-08-28T20:39:10.983Z,9.37
2017-08-28T20:41:40.238Z,7.73
2017-08-28T20:44:09.495Z,8.83
2017-08-28T20:46:38.784Z,10.10
2017-08-28T20:49:08.322Z,8.03
2017-08-28T20:51:37.685Z,7.17
2017-08-28T20:54:06.948Z,7.67
2017-08-28T20:56:36.213Z,8.63
2017-08-28T20:59:06.226Z,8.20
2017-08-28T21:01:35.507Z,9.17
2017-08-28T21:04:04.790Z,7.60
2017-08-28T21:06:34.067Z,9.17
2017-08-28T21:09:03.324Z,8.73
2017-08-28T21:11:33.708Z,8.13
2017-08-28T21:14:03.254Z,7.53
2017-08-28T21:16:32.487Z,8.27
2017-08-28T21:19:01.781Z,7.97
2017-08-28T21:21:31.081Z,6.73
2017-08-28T21:24:01.112Z,8.27
2017-08-28T21:26:30.504Z,7.63
2017-08-28T21:28:59.770Z,7.60
2017-08-28T21:31:29.082Z,8.20
2017-08-28T21:33:58.334Z,7.20
2017-08-28T21:36:27.737Z,8.20
2017-08-28T21:38:57.034Z,6.87
2017-08-28T21:41:26.298Z,6.67
2017-08-28T21:43:55.526Z,7.53
2017-08-28T21:46:24.911Z,7.60
2017-08-28T21:48:54.200Z,7.77
2017-08-28T21:51:23.478Z,7.50
2017-08-28T21:53:52.753Z,6.70
2017-08-28T21:56:22.023Z,7.30
2017-08-28T21:58:51.318Z,7.50
2017-08-28T22:01:20.578Z,7.67
2017-08-28T22:03:49.858Z,6.63
2017-08-28T22:06:19.146Z,7.13
2017-08-28T22:08:48.445Z,7.47
2017-08-28T22:11:17.702Z,7.00
2017-08-28T22:13:47.023Z,7.10
2017-08-28T22:16:16.481Z,6.50
2017-08-28T22:18:45.843Z,6.40
2017-08-28T22:21:15.875Z,7.07
2017-08-28T22:23:45.130Z,6.30
2017-08-28T22:26:14.550Z,7.23
2017-08-28T22:28:44.570Z,7.60
2017-08-28T22:31:13.847Z,6.80
2017-08-28T22:33:43.093Z,6.93
2017-08-28T22:36:12.352Z,7.03
2017-08-28T22:38:42.327Z,6.50
2017-08-28T22:41:11.575Z,6.37
2017-08-28T22:43:40.837Z,5.70
2017-08-28T22:46:10.085Z,6.07
2017-08-28T22:48:39.351Z,6.33
2017-08-28T22:51:08.790Z,6.60
2017-08-28T22:53:38.067Z,5.80
2017-08-28T22:56:08.194Z,6.20
2017-08-28T22:58:37.506Z,6.07
2017-08-28T23:01:06.975Z,6.10
2017-08-28T23:03:36.247Z,8.43
2017-08-28T23:06:05.610Z,5.93
2017-08-28T23:08:34.932Z,6.07
2017-08-28T23:11:04.939Z,6.13
2017-08-28T23:13:34.331Z,5.93
2017-08-28T23:16:03.601Z,5.73
2017-08-28T23:18:32.911Z,7.00
2017-08-28T23:21:02.182Z,6.37
2017-08-28T23:23:31.427Z,5.80
2017-08-28T23:26:00.694Z,6.07
2017-08-28T23:28:29.936Z,5.70
2017-08-28T23:30:59.180Z,6.27
2017-08-28T23:33:28.455Z,5.47
2017-08-28T23:35:57.718Z,6.60
2017-08-28T23:38:26.990Z,5.77
2017-08-28T23:40:56.238Z,5.63
2017-08-28T23:43:25.744Z,5.40
2017-08-28T23:45:55.002Z,5.70
2017-08-28T23:48:24.359Z,5.00
2017-08-28T23:50:53.606Z,5.80
2017-08-28T23:53:22.844Z,5.70
2017-08-28T23:55:52.169Z,5.30
2017-08-28T23:58:21.405Z,4.93
